Valdez, New Mexico
Current Conditions -  °F | °C
As of 2:15 AM on Monday 24 Nov 2014 (Local Time) from KSKX Reporting Station
Clear Clear  
Wind Chill: -8°   Ceiling: Unl
Heat Index:   Visibility: 10mi
Dew Point: -4°   Wind: 6mph
Humidity: 72%   Direction: 10°N
Pressure: 30.03"   Gusts: NA
Location:  36.53°N, 105.58°W
Report Text: KSKX 240915Z AUTO 01005KT 10SM CLR M16/M20 A3003 RMK AO1
Loading
Personal Weather Stations






























Interactive Weather Map New forecast layout! Learn more

10-Day Weather Forecast

Advertisements
Track Severe Weather on mobile